Time;durP1;ratioP1;P1;durP2;ratioP2;P2;SDS_P1;SDS_P2;PMS_P1;PMS_P2;Temp;Humidity;BMP_temperature;BMP_pressure;BME280_temperature;BME280_humidity;BME280_pressure;Samples;Min_cycle;Max_cycle;Signal;HPM_P1;HPM_P2
2023/10/23 00:00:04;;;;;;;5.10;1.70;;;12.10;99.90;;;;;;4974528;28;20625;-82
2023/10/23 00:02:30;;;;;;;2.58;1.40;;;12.10;99.90;;;;;;4974133;28;20045;-82
2023/10/23 00:04:55;;;;;;;2.50;1.60;;;12.10;99.90;;;;;;4963868;28;20088;-81
2023/10/23 00:07:21;;;;;;;1.85;1.58;;;12.10;99.90;;;;;;4960918;28;20189;-81
2023/10/23 00:09:46;;;;;;;3.90;1.80;;;12.10;99.90;;;;;;4980217;28;20057;-81
2023/10/23 00:12:12;;;;;;;3.25;1.42;;;12.10;99.90;;;;;;4973978;28;20039;-80
2023/10/23 00:14:37;;;;;;;2.88;1.38;;;12.10;99.90;;;;;;4976471;28;20402;-82
2023/10/23 00:17:03;;;;;;;5.95;1.77;;;12.00;99.90;;;;;;4963250;28;20052;-82
2023/10/23 00:19:29;;;;;;;4.50;1.80;;;12.00;99.90;;;;;;4976378;28;20172;-81
2023/10/23 00:21:54;;;;;;;2.50;1.38;;;12.00;99.90;;;;;;4989168;28;20061;-82
2023/10/23 00:24:20;;;;;;;5.57;1.70;;;12.00;99.90;;;;;;4975255;28;20033;-83
2023/10/23 00:26:45;;;;;;;3.72;1.80;;;11.90;99.90;;;;;;4975021;28;20026;-82
2023/10/23 00:29:11;;;;;;;4.18;1.45;;;11.90;99.90;;;;;;4978479;28;20034;-80
2023/10/23 00:31:37;;;;;;;2.47;1.52;;;11.90;99.90;;;;;;4963360;28;20038;-82
2023/10/23 00:34:02;;;;;;;4.82;2.08;;;11.90;99.90;;;;;;4977200;28;20401;-81
2023/10/23 00:36:28;;;;;;;3.50;2.05;;;11.90;99.90;;;;;;4962985;28;20053;-82
2023/10/23 00:38:53;;;;;;;3.78;1.83;;;11.90;99.90;;;;;;4964530;28;20630;-82
2023/10/23 00:41:19;;;;;;;6.35;2.15;;;12.00;99.90;;;;;;4973130;28;20029;-82
2023/10/23 00:43:45;;;;;;;3.08;1.70;;;11.90;99.90;;;;;;4972654;28;20026;-81
2023/10/23 00:46:14;;;;;;;9.20;1.42;;;11.90;99.90;;;;;;4981268;28;20109;-82
2023/10/23 00:48:40;;;;;;;3.47;1.40;;;11.90;99.90;;;;;;4975178;28;20108;-82
2023/10/23 00:51:05;;;;;;;5.40;1.70;;;11.80;99.90;;;;;;4975929;28;20053;-82
2023/10/23 00:53:35;;;;;;;7.75;2.38;;;11.70;99.90;;;;;;4963722;28;20034;-81
2023/10/23 00:56:02;;;;;;;2.92;1.88;;;11.80;99.90;;;;;;4970889;28;20100;-81
2023/10/23 00:58:28;;;;;;;6.03;1.98;;;11.70;99.90;;;;;;4972131;28;20534;-82
2023/10/23 01:00:54;;;;;;;5.13;2.15;;;11.60;99.90;;;;;;4961330;28;20034;-82
2023/10/23 01:03:20;;;;;;;2.90;2.03;;;11.50;99.90;;;;;;4974235;28;20503;-81
2023/10/23 01:05:45;;;;;;;7.10;2.50;;;11.50;99.90;;;;;;4956242;28;20117;-82
2023/10/23 01:08:11;;;;;;;2.67;1.55;;;11.50;99.90;;;;;;4974206;28;20043;-81
2023/10/23 01:10:36;;;;;;;3.80;1.90;;;11.40;99.90;;;;;;4977699;28;20205;-82
2023/10/23 01:13:08;;;;;;;7.30;2.58;;;11.40;99.90;;;;;;4974208;28;20046;-83
2023/10/23 01:15:34;;;;;;;4.20;2.40;;;11.20;99.90;;;;;;4972471;28;20041;-82
2023/10/23 01:17:59;;;;;;;5.97;1.92;;;11.00;99.90;;;;;;4975279;28;20038;-81
2023/10/23 01:20:27;;;;;;;10.35;2.28;;;11.00;99.90;;;;;;4962115;28;20475;-81
2023/10/23 01:22:57;;;;;;;5.50;2.15;;;10.90;99.90;;;;;;4972642;28;20045;-81
2023/10/23 01:25:24;;;;;;;10.73;2.20;;;10.80;99.90;;;;;;4958173;28;20236;-81
2023/10/23 01:27:50;;;;;;;6.32;2.05;;;10.80;99.90;;;;;;4970127;28;20038;-81
2023/10/23 01:30:15;;;;;;;5.70;2.80;;;10.70;99.90;;;;;;4974921;28;20030;-81
2023/10/23 01:32:41;;;;;;;4.00;2.00;;;10.70;99.90;;;;;;4974189;28;20030;-83
2023/10/23 01:35:07;;;;;;;4.90;2.40;;;10.80;99.90;;;;;;4977162;28;20398;-82
2023/10/23 01:37:32;;;;;;;6.80;2.13;;;10.70;99.90;;;;;;4956604;28;20396;-82
2023/10/23 01:39:58;;;;;;;5.85;2.30;;;10.70;99.90;;;;;;4974420;28;20035;-83
2023/10/23 01:42:28;;;;;;;6.70;2.75;;;10.60;99.90;;;;;;4965646;28;20666;-82
2023/10/23 01:44:55;;;;;;;4.20;1.67;;;10.50;99.90;;;;;;4979311;28;20427;-82
2023/10/23 01:47:21;;;;;;;4.38;2.75;;;10.40;99.90;;;;;;4979472;28;20125;-82
2023/10/23 01:49:47;;;;;;;4.15;2.13;;;10.40;99.90;;;;;;4973589;28;20185;-82
2023/10/23 01:52:12;;;;;;;5.43;2.38;;;10.30;99.90;;;;;;4958078;28;20046;-82
2023/10/23 01:54:38;;;;;;;5.60;2.50;;;10.10;99.90;;;;;;4957386;28;20041;-82
2023/10/23 01:57:03;;;;;;;4.72;2.17;;;10.10;99.90;;;;;;4957559;28;20069;-82
2023/10/23 01:59:29;;;;;;;5.80;2.60;;;10.00;99.90;;;;;;4974899;28;20030;-81
2023/10/23 02:01:54;;;;;;;9.20;3.17;;;10.00;99.90;;;;;;4975150;28;20111;-82
2023/10/23 02:04:20;;;;;;;6.90;2.90;;;10.00;99.90;;;;;;4973212;28;20027;-81
2023/10/23 02:06:46;;;;;;;7.97;2.85;;;10.00;99.90;;;;;;4974644;28;20030;-82
2023/10/23 02:09:12;;;;;;;5.10;2.65;;;10.00;99.90;;;;;;4970133;28;20398;-81
2023/10/23 02:11:38;;;;;;;4.65;1.88;;;10.00;99.90;;;;;;4958439;28;20138;-80
2023/10/23 02:14:03;;;;;;;7.95;2.05;;;10.00;99.90;;;;;;4976521;28;20109;-81
2023/10/23 02:16:29;;;;;;;6.22;3.47;;;10.30;99.90;;;;;;4981987;28;20033;-80
2023/10/23 02:18:55;;;;;;;8.40;2.35;;;10.20;99.90;;;;;;4979755;28;20407;-81
2023/10/23 02:21:20;;;;;;;6.40;2.55;;;10.30;99.90;;;;;;4977864;28;20392;-81
2023/10/23 02:23:46;;;;;;;6.03;2.35;;;10.30;99.90;;;;;;4975103;28;20087;-81
2023/10/23 02:26:11;;;;;;;5.50;2.85;;;10.30;99.90;;;;;;4977618;28;20169;-81
2023/10/23 02:28:37;;;;;;;4.53;2.08;;;10.10;99.90;;;;;;4978132;28;20030;-80
2023/10/23 02:31:03;;;;;;;3.60;1.92;;;10.10;99.90;;;;;;4959266;28;20442;-80
2023/10/23 02:33:29;;;;;;;5.13;1.80;;;10.10;99.90;;;;;;4977517;28;20027;-81
2023/10/23 02:35:55;;;;;;;6.00;3.17;;;10.10;99.90;;;;;;4975072;28;20035;-81
2023/10/23 02:38:21;;;;;;;6.18;3.17;;;9.90;99.90;;;;;;4960218;28;20027;-81
2023/10/23 02:40:53;;;;;;;5.55;2.42;;;9.80;99.90;;;;;;4958619;28;20033;-81
2023/10/23 02:43:18;;;;;;;5.78;2.80;;;9.80;99.90;;;;;;4962694;28;20034;-80
2023/10/23 02:45:44;;;;;;;3.65;2.20;;;9.90;99.90;;;;;;4959310;28;20042;-80
2023/10/23 02:48:10;;;;;;;8.73;2.88;;;10.00;99.90;;;;;;4976235;28;20068;-80
2023/10/23 02:50:35;;;;;;;9.80;2.35;;;9.90;99.90;;;;;;4979442;28;20035;-81
2023/10/23 02:53:01;;;;;;;3.95;2.28;;;9.80;99.90;;;;;;4976719;28;20515;-80
2023/10/23 02:55:26;;;;;;;5.03;2.50;;;9.80;99.90;;;;;;4981660;28;20030;-80
2023/10/23 02:57:52;;;;;;;5.30;2.20;;;9.70;99.90;;;;;;4977039;28;20042;-80
2023/10/23 03:00:20;;;;;;;3.78;2.10;;;9.70;99.90;;;;;;4959807;28;20121;-80
2023/10/23 03:02:46;;;;;;;7.60;2.90;;;9.70;99.90;;;;;;4964013;28;20038;-81
2023/10/23 03:05:11;;;;;;;5.72;2.70;;;9.60;99.90;;;;;;4976548;28;20430;-80
2023/10/23 03:07:37;;;;;;;7.70;2.90;;;9.60;99.90;;;;;;4957504;28;20058;-80
2023/10/23 03:10:03;;;;;;;6.55;3.13;;;9.40;99.90;;;;;;4978076;28;20465;-80
2023/10/23 03:12:28;;;;;;;5.28;2.42;;;9.40;99.90;;;;;;4976035;28;20057;-80
2023/10/23 03:14:54;;;;;;;5.65;2.95;;;9.30;99.90;;;;;;4978616;28;20487;-80
2023/10/23 03:17:20;;;;;;;11.85;3.50;;;9.30;99.90;;;;;;4981523;28;20499;-80
2023/10/23 03:19:46;;;;;;;9.30;2.92;;;9.30;99.90;;;;;;4993913;28;20110;-80
2023/10/23 03:22:12;;;;;;;6.13;2.60;;;9.30;99.90;;;;;;4978006;28;20062;-80
2023/10/23 03:24:38;;;;;;;5.03;2.47;;;9.50;99.90;;;;;;4977208;28;20030;-80
2023/10/23 03:27:04;;;;;;;5.30;2.97;;;9.30;99.90;;;;;;4959116;28;20030;-80
2023/10/23 03:29:29;;;;;;;9.35;3.28;;;9.30;99.90;;;;;;4971568;28;20039;-80
2023/10/23 03:31:55;;;;;;;6.53;3.53;;;9.20;99.90;;;;;;4974090;28;20076;-80
2023/10/23 03:34:21;;;;;;;6.32;3.42;;;9.20;99.90;;;;;;4976936;28;20030;-80
2023/10/23 03:36:46;;;;;;;5.68;3.13;;;9.20;99.90;;;;;;4977216;28;20118;-80
2023/10/23 03:39:12;;;;;;;4.18;3.08;;;9.10;99.90;;;;;;4975140;28;20038;-81
2023/10/23 03:41:37;;;;;;;5.30;2.75;;;9.20;99.90;;;;;;4961269;28;20033;-80
2023/10/23 03:44:04;;;;;;;7.72;2.75;;;9.30;99.90;;;;;;4957567;28;20399;-80
2023/10/23 03:46:30;;;;;;;4.82;2.60;;;9.30;99.90;;;;;;4975443;28;20045;-80
2023/10/23 03:48:56;;;;;;;11.10;3.08;;;9.20;99.90;;;;;;4972297;28;20030;-80
2023/10/23 03:51:22;;;;;;;5.78;3.03;;;8.90;99.90;;;;;;4956191;28;20463;-80
2023/10/23 03:53:48;;;;;;;5.07;2.50;;;9.00;99.90;;;;;;4972566;28;20022;-80
2023/10/23 03:56:13;;;;;;;5.93;3.25;;;9.10;99.90;;;;;;4958281;28;20081;-82
2023/10/23 03:58:39;;;;;;;5.82;3.05;;;9.00;99.90;;;;;;4974083;28;20045;-81
2023/10/23 04:01:04;;;;;;;6.63;3.28;;;8.80;99.90;;;;;;4954608;28;20034;-81
2023/10/23 04:03:30;;;;;;;9.88;3.97;;;8.60;99.90;;;;;;4959199;28;20100;-80
2023/10/23 04:05:55;;;;;;;6.32;3.60;;;8.60;99.90;;;;;;4957235;28;20029;-80
2023/10/23 04:08:21;;;;;;;5.75;3.75;;;8.60;99.90;;;;;;4974927;28;20035;-81
2023/10/23 04:10:47;;;;;;;10.88;4.53;;;8.50;99.90;;;;;;4969389;28;20046;-82
2023/10/23 04:13:13;;;;;;;14.13;4.45;;;8.50;99.90;;;;;;4969179;28;20121;-80
2023/10/23 04:15:39;;;;;;;9.63;3.47;;;8.50;99.90;;;;;;4973997;28;20121;-81
2023/10/23 04:18:08;;;;;;;7.30;4.00;;;8.50;99.90;;;;;;4758997;28;10001043;-81
2023/10/23 04:20:34;;;;;;;4.22;3.65;;;8.50;99.90;;;;;;4955712;28;20254;-81
2023/10/23 04:22:59;;;;;;;10.30;4.00;;;8.40;99.90;;;;;;4973144;28;20032;-82
2023/10/23 04:25:25;;;;;;;5.28;3.78;;;8.40;99.90;;;;;;4969747;28;20063;-82
2023/10/23 04:27:50;;;;;;;4.80;3.35;;;8.30;99.90;;;;;;4974974;28;20038;-82
2023/10/23 04:30:17;;;;;;;4.40;2.53;;;8.40;99.90;;;;;;4972396;28;20030;-79
2023/10/23 04:32:42;;;;;;;7.28;3.92;;;8.50;99.90;;;;;;4972084;28;20031;-81
2023/10/23 04:35:08;;;;;;;6.88;3.35;;;8.60;99.90;;;;;;4974377;28;20031;-81
2023/10/23 04:37:33;;;;;;;12.50;4.32;;;8.60;99.90;;;;;;4957463;28;20081;-80
2023/10/23 04:39:59;;;;;;;10.55;3.80;;;8.60;99.90;;;;;;4971598;28;20055;-78
2023/10/23 04:42:24;;;;;;;4.55;2.60;;;8.50;99.90;;;;;;4957851;28;20363;-80
2023/10/23 04:44:50;;;;;;;6.47;2.83;;;8.50;99.90;;;;;;4955401;28;20534;-80
2023/10/23 04:47:15;;;;;;;4.13;3.00;;;8.60;99.90;;;;;;4974638;28;20022;-80
2023/10/23 04:49:41;;;;;;;5.38;2.60;;;8.60;99.90;;;;;;4955323;28;20065;-81
2023/10/23 04:52:06;;;;;;;3.17;1.90;;;8.60;99.90;;;;;;4969707;28;20100;-81
2023/10/23 04:54:32;;;;;;;5.72;3.17;;;8.60;99.90;;;;;;4974621;28;20041;-81
2023/10/23 04:56:58;;;;;;;10.75;3.92;;;8.60;99.90;;;;;;4957020;28;20054;-81
2023/10/23 04:59:23;;;;;;;5.28;2.63;;;8.60;99.90;;;;;;4966387;28;20039;-81
2023/10/23 05:01:49;;;;;;;5.55;2.78;;;8.70;99.90;;;;;;4969447;28;20022;-80
2023/10/23 05:04:15;;;;;;;3.95;2.67;;;8.60;99.90;;;;;;4971956;28;20030;-80
2023/10/23 05:06:40;;;;;;;5.80;4.05;;;8.60;99.90;;;;;;4956717;28;20550;-81
2023/10/23 05:09:06;;;;;;;6.45;3.00;;;8.60;99.90;;;;;;4959929;28;20108;-82
2023/10/23 05:11:32;;;;;;;6.43;4.10;;;8.60;99.90;;;;;;4974706;28;20030;-81
2023/10/23 05:13:58;;;;;;;6.68;4.00;;;8.50;99.90;;;;;;4970644;28;20041;-82
2023/10/23 05:16:24;;;;;;;9.80;3.92;;;8.20;99.90;;;;;;4987324;28;20900;-81
2023/10/23 05:18:49;;;;;;;7.82;4.50;;;8.10;99.90;;;;;;4972233;28;20030;-81
2023/10/23 05:21:15;;;;;;;6.63;3.80;;;8.00;99.90;;;;;;4953557;28;20062;-81
2023/10/23 05:23:41;;;;;;;5.47;4.28;;;8.00;99.90;;;;;;4972138;28;20034;-82
2023/10/23 05:26:08;;;;;;;5.78;4.43;;;8.00;99.90;;;;;;4973551;28;20533;-83
2023/10/23 05:28:33;;;;;;;13.30;4.80;;;7.90;99.90;;;;;;4972468;28;20733;-81
2023/10/23 05:30:59;;;;;;;7.05;4.22;;;7.80;99.90;;;;;;4972377;28;20125;-82
2023/10/23 05:33:25;;;;;;;5.18;3.78;;;7.80;99.90;;;;;;4971949;28;20494;-83
2023/10/23 05:36:00;;;;;;;9.65;4.07;;;7.80;99.90;;;;;;4968462;28;20044;-82
2023/10/23 05:38:26;;;;;;;7.40;3.53;;;7.90;99.90;;;;;;4957109;28;20034;-83
2023/10/23 05:40:56;;;;;;;7.32;3.70;;;7.80;99.90;;;;;;4960221;28;20034;-82
2023/10/23 05:43:21;;;;;;;7.40;3.85;;;7.60;99.90;;;;;;4954925;28;20124;-82
2023/10/23 05:45:47;;;;;;;7.50;4.53;;;7.50;99.90;;;;;;4972074;28;20125;-81
2023/10/23 05:48:12;;;;;;;7.50;4.35;;;7.40;99.90;;;;;;4958254;28;20364;-80
2023/10/23 05:50:38;;;;;;;13.50;5.15;;;7.50;99.90;;;;;;4975515;28;20136;-79
2023/10/23 05:53:03;;;;;;;10.00;4.40;;;7.40;99.90;;;;;;4957097;28;20045;-80
2023/10/23 05:55:34;;;;;;;6.25;4.20;;;7.50;99.90;;;;;;4972180;28;20030;-79
2023/10/23 05:58:00;;;;;;;11.40;4.65;;;7.50;99.90;;;;;;4991642;28;20034;-80
2023/10/23 06:00:26;;;;;;;10.40;5.18;;;7.60;99.90;;;;;;4957863;28;20230;-80
2023/10/23 06:02:52;;;;;;;9.43;4.70;;;7.60;99.90;;;;;;4974644;28;20482;-80
2023/10/23 06:05:17;;;;;;;8.88;4.90;;;7.60;99.90;;;;;;4956672;28;20034;-81
2023/10/23 06:07:43;;;;;;;7.22;4.78;;;7.60;99.90;;;;;;4961094;28;20462;-80
2023/10/23 06:10:09;;;;;;;9.50;4.72;;;7.50;99.90;;;;;;4959209;28;20088;-80
2023/10/23 06:12:34;;;;;;;13.52;5.68;;;7.40;99.90;;;;;;4960049;28;20027;-81
2023/10/23 06:15:00;;;;;;;13.40;4.75;;;7.40;99.90;;;;;;4974412;28;20053;-80
2023/10/23 06:17:26;;;;;;;9.35;4.75;;;7.50;99.90;;;;;;4974800;28;20038;-80
2023/10/23 06:19:51;;;;;;;8.95;4.68;;;7.50;99.90;;;;;;4993021;28;20056;-80
2023/10/23 06:22:17;;;;;;;9.65;5.78;;;7.50;99.90;;;;;;4950989;28;20030;-80
2023/10/23 06:24:44;;;;;;;9.25;5.55;;;7.50;99.90;;;;;;4959942;28;20034;-80
2023/10/23 06:27:10;;;;;;;13.48;5.75;;;7.50;99.90;;;;;;4976132;28;20553;-80
2023/10/23 06:29:35;;;;;;;9.70;5.93;;;7.50;99.90;;;;;;4971849;28;20109;-80
2023/10/23 06:32:02;;;;;;;12.00;5.88;;;7.50;99.90;;;;;;4974455;28;20031;-79
2023/10/23 06:34:28;;;;;;;11.27;6.18;;;7.50;99.90;;;;;;4972326;28;20129;-79
2023/10/23 06:36:53;;;;;;;12.20;6.50;;;7.50;99.90;;;;;;4954467;28;20542;-79
2023/10/23 06:39:19;;;;;;;11.10;6.90;;;7.50;99.90;;;;;;4961248;28;20522;-80
2023/10/23 06:41:44;;;;;;;16.33;7.53;;;7.50;99.90;;;;;;4972024;28;20022;-82
2023/10/23 06:44:10;;;;;;;15.73;7.18;;;7.50;99.90;;;;;;4973009;28;20022;-82
2023/10/23 06:46:35;;;;;;;14.90;8.07;;;7.50;99.90;;;;;;4955251;28;20035;-83
2023/10/23 06:49:01;;;;;;;11.20;7.07;;;7.50;99.90;;;;;;4974198;28;20031;-83
2023/10/23 06:51:26;;;;;;;16.00;8.77;;;7.50;99.90;;;;;;4972767;28;20038;-82
2023/10/23 06:53:52;;;;;;;10.77;6.25;;;7.60;99.90;;;;;;4993538;28;20117;-81
2023/10/23 06:56:17;;;;;;;12.52;8.43;;;7.60;99.90;;;;;;4993645;28;20030;-79
2023/10/23 06:58:43;;;;;;;14.20;8.00;;;7.70;99.90;;;;;;4975127;28;20113;-79
2023/10/23 07:01:09;;;;;;;21.08;9.05;;;7.80;99.90;;;;;;4978054;28;20027;-80
2023/10/23 07:03:35;;;;;;;18.17;9.18;;;7.80;99.90;;;;;;4965455;28;20054;-80
2023/10/23 07:06:06;;;;;;;19.13;9.23;;;7.70;99.90;;;;;;4977852;28;20034;-80
2023/10/23 07:08:32;;;;;;;17.45;9.65;;;7.70;99.90;;;;;;4972430;28;20034;-80
2023/10/23 07:10:58;;;;;;;18.38;10.68;;;7.80;99.90;;;;;;4973792;28;20524;-79
2023/10/23 07:13:23;;;;;;;19.05;9.82;;;7.80;99.90;;;;;;4977386;28;20054;-80
2023/10/23 07:15:49;;;;;;;18.63;9.43;;;7.90;99.90;;;;;;4977646;28;20502;-79
2023/10/23 07:18:17;;;;;;;18.05;10.85;;;7.90;99.90;;;;;;4975549;28;20038;-79
2023/10/23 07:20:56;;;;;;;16.55;10.93;;;8.00;99.90;;;;;;4960307;28;20070;-81
2023/10/23 07:23:22;;;;;;;16.05;9.25;;;8.10;99.90;;;;;;4938825;28;20146;-80
2023/10/23 07:25:48;;;;;;;14.30;10.00;;;8.30;99.90;;;;;;4946332;28;20148;-79
2023/10/23 07:28:14;;;;;;;14.30;8.57;;;8.40;99.90;;;;;;4961307;28;20041;-78
2023/10/23 07:30:39;;;;;;;14.48;9.15;;;8.60;99.90;;;;;;4962610;28;20034;-80
2023/10/23 07:33:05;;;;;;;17.15;9.82;;;8.60;99.90;;;;;;4953873;28;20031;-81
2023/10/23 07:35:30;;;;;;;18.13;9.63;;;8.60;99.90;;;;;;4974734;28;20160;-80
2023/10/23 07:37:59;;;;;;;14.90;9.60;;;8.70;99.90;;;;;;4968140;28;20072;-81
2023/10/23 07:40:27;;;;;;;15.45;8.95;;;8.80;99.90;;;;;;4993299;28;20030;-79
2023/10/23 07:42:53;;;;;;;8.95;6.75;;;9.10;99.90;;;;;;4976548;28;20049;-81
2023/10/23 07:45:18;;;;;;;12.23;6.60;;;9.20;99.90;;;;;;4974327;28;20038;-81
2023/10/23 07:47:44;;;;;;;12.10;7.40;;;9.40;99.90;;;;;;4982505;28;20037;-81
2023/10/23 07:50:12;;;;;;;11.25;6.90;;;9.50;99.90;;;;;;4959651;28;20033;-82
2023/10/23 07:52:40;;;;;;;13.15;8.98;;;9.60;99.90;;;;;;4977448;28;20054;-82
2023/10/23 07:55:08;;;;;;;15.05;8.32;;;9.70;99.90;;;;;;4974824;28;20041;-84
2023/10/23 07:57:34;;;;;;;10.55;6.45;;;9.80;99.90;;;;;;4961744;28;20025;-83
2023/10/23 07:59:59;;;;;;;14.25;8.65;;;10.00;99.90;;;;;;4975427;28;20037;-82
2023/10/23 08:02:25;;;;;;;12.90;8.27;;;10.10;99.90;;;;;;4975939;28;20034;-82
2023/10/23 08:04:53;;;;;;;12.90;8.93;;;10.00;99.90;;;;;;4970682;28;20045;-82
2023/10/23 08:07:21;;;;;;;11.07;6.88;;;10.00;99.90;;;;;;4958245;28;20113;-81
2023/10/23 08:09:47;;;;;;;10.55;6.90;;;10.10;99.90;;;;;;4961465;28;20041;-81
2023/10/23 08:12:19;;;;;;;10.07;7.20;;;10.30;99.90;;;;;;4966356;28;20038;-81
2023/10/23 08:14:44;;;;;;;14.07;7.70;;;10.40;99.90;;;;;;4957619;28;20030;-82
2023/10/23 08:17:10;;;;;;;13.93;8.75;;;10.50;99.90;;;;;;4975909;28;20033;-82
2023/10/23 08:19:36;;;;;;;12.82;8.10;;;10.40;99.90;;;;;;4961142;28;20449;-83
2023/10/23 08:22:01;;;;;;;12.85;8.93;;;10.60;99.90;;;;;;4974824;28;20093;-82
2023/10/23 08:24:27;;;;;;;12.55;8.05;;;10.70;99.90;;;;;;4976103;28;20092;-82
2023/10/23 08:26:53;;;;;;;12.55;8.48;;;10.90;99.90;;;;;;4978019;28;20144;-82
2023/10/23 08:29:18;;;;;;;20.73;8.30;;;10.80;99.90;;;;;;4979314;28;20026;-82
2023/10/23 08:31:44;;;;;;;13.43;8.27;;;11.00;99.90;;;;;;4978125;28;20434;-80
2023/10/23 08:34:09;;;;;;;11.07;8.05;;;11.20;99.90;;;;;;4971765;28;20022;-81
2023/10/23 08:36:35;;;;;;;13.30;8.43;;;11.30;99.90;;;;;;4967202;28;20026;-82
2023/10/23 08:39:00;;;;;;;11.63;8.15;;;11.30;99.90;;;;;;4961816;28;20034;-84
2023/10/23 08:41:26;;;;;;;11.65;7.15;;;11.40;99.90;;;;;;4956188;28;20134;-82
2023/10/23 08:43:52;;;;;;;12.60;7.13;;;11.60;99.90;;;;;;4939444;28;20042;-80
2023/10/23 08:46:17;;;;;;;12.38;8.00;;;11.60;99.90;;;;;;4951297;28;20034;-80
2023/10/23 08:48:43;;;;;;;15.85;8.60;;;11.60;99.90;;;;;;4963311;28;20034;-82
2023/10/23 08:51:09;;;;;;;10.07;6.55;;;11.40;99.90;;;;;;4975768;28;20046;-81
2023/10/23 08:53:40;;;;;;;16.17;7.00;;;11.50;99.90;;;;;;4963743;28;20045;-81
2023/10/23 08:56:05;;;;;;;15.35;8.45;;;11.50;99.90;;;;;;4933259;28;20026;-81
2023/10/23 08:58:32;;;;;;;12.50;7.07;;;11.50;99.90;;;;;;4975856;28;20038;-82
2023/10/23 09:00:58;;;;;;;14.82;6.75;;;12.00;99.90;;;;;;4947018;28;20387;-81
2023/10/23 09:03:24;;;;;;;11.45;7.60;;;12.20;99.90;;;;;;4984825;28;20038;-82
2023/10/23 09:05:49;;;;;;;10.05;6.32;;;12.50;99.90;;;;;;4959598;28;20109;-79
2023/10/23 09:08:17;;;;;;;9.73;5.13;;;12.70;99.90;;;;;;4948749;28;20447;-79
2023/10/23 09:11:02;;;;;;;9.50;5.60;;;12.80;99.90;;;;;;4962876;28;20463;-79
2023/10/23 09:13:33;;;;;;;8.75;6.50;;;12.80;99.90;;;;;;4989456;28;20406;-79
2023/10/23 09:15:59;;;;;;;8.10;4.90;;;13.00;99.90;;;;;;4964490;28;20521;-79
2023/10/23 09:18:24;;;;;;;6.68;4.65;;;13.10;99.90;;;;;;4994294;28;20026;-79
2023/10/23 09:20:50;;;;;;;6.30;4.13;;;13.30;99.90;;;;;;4974141;28;20031;-79
2023/10/23 09:23:16;;;;;;;11.95;5.35;;;13.50;99.90;;;;;;4963127;28;20038;-80
2023/10/23 09:25:41;;;;;;;7.40;4.32;;;13.80;99.90;;;;;;4961436;28;20483;-79
2023/10/23 09:28:10;;;;;;;7.07;4.78;;;14.10;99.90;;;;;;4975864;28;20034;-80
2023/10/23 09:30:42;;;;;;;7.65;5.03;;;14.10;99.90;;;;;;4976095;28;20034;-80
2023/10/23 09:33:07;;;;;;;6.10;4.28;;;14.00;99.90;;;;;;4943729;28;20120;-80
2023/10/23 09:35:36;;;;;;;8.13;5.25;;;14.30;99.90;;;;;;4975045;28;20146;-80
2023/10/23 09:38:14;;;;;;;14.45;5.95;;;14.40;99.90;;;;;;4960240;28;20052;-80
2023/10/23 09:40:39;;;;;;;7.30;4.38;;;14.20;99.90;;;;;;4970447;28;20062;-79
2023/10/23 09:43:08;;;;;;;9.80;5.22;;;14.30;99.90;;;;;;4954733;28;20111;-80
2023/10/23 09:45:36;;;;;;;12.95;4.65;;;14.30;99.90;;;;;;4967915;28;20441;-80
2023/10/23 09:48:02;;;;;;;6.57;4.72;;;14.40;99.90;;;;;;4940124;28;20046;-80
2023/10/23 09:50:27;;;;;;;8.25;5.05;;;14.20;99.90;;;;;;4973056;28;20042;-80
2023/10/23 09:52:57;;;;;;;10.20;5.40;;;14.30;99.90;;;;;;4974428;28;20434;-81
2023/10/23 09:55:26;;;;;;;12.60;5.60;;;14.30;99.90;;;;;;4950689;28;20117;-80
2023/10/23 09:57:53;;;;;;;14.25;6.43;;;14.30;99.90;;;;;;4958026;28;20034;-80
2023/10/23 10:00:22;;;;;;;8.95;5.25;;;14.10;99.90;;;;;;4972993;28;20033;-78
2023/10/23 10:02:54;;;;;;;9.10;4.43;;;14.20;99.90;;;;;;4959015;28;20034;-80
2023/10/23 10:05:57;;;;;;;19.83;5.65;;;14.10;99.90;;;;;;4973178;28;20118;-80
2023/10/23 10:08:24;;;;;;;10.40;5.30;;;14.50;99.90;;;;;;4972362;28;20086;-80
2023/10/23 10:10:50;;;;;;;10.55;5.05;;;14.70;99.90;;;;;;4975966;28;20034;-79
2023/10/23 10:13:16;;;;;;;8.20;4.07;;;14.70;99.90;;;;;;4976219;28;20113;-78
2023/10/23 10:15:45;;;;;;;8.43;4.30;;;14.80;99.90;;;;;;4969266;28;20134;-78
2023/10/23 10:18:11;;;;;;;6.60;3.90;;;14.90;99.90;;;;;;4959017;28;20047;-77
2023/10/23 10:20:37;;;;;;;8.00;4.20;;;15.00;99.90;;;;;;4972247;28;20529;-78
2023/10/23 10:23:11;;;;;;;4.97;3.72;;;14.90;99.90;;;;;;4957837;28;20050;-77
2023/10/23 10:25:40;;;;;;;7.55;4.20;;;15.00;99.90;;;;;;4972584;28;20132;-76
2023/10/23 10:28:07;;;;;;;8.18;4.00;;;15.20;99.90;;;;;;4973484;28;20487;-77
2023/10/23 10:30:45;;;;;;;7.43;4.55;;;15.40;99.90;;;;;;4972037;28;20030;-77
2023/10/23 10:33:23;;;;;;;7.80;4.03;;;15.30;99.90;;;;;;4983487;28;20046;-78
2023/10/23 10:36:00;;;;;;;6.43;3.78;;;15.30;99.90;;;;;;4965733;28;20448;-78
2023/10/23 10:38:26;;;;;;;9.90;4.07;;;15.20;99.90;;;;;;4978935;28;20394;-78
2023/10/23 10:41:17;;;;;;;6.00;3.53;;;15.20;99.90;;;;;;4979266;28;20117;-79
2023/10/23 10:43:59;;;;;;;7.13;3.58;;;15.30;99.90;;;;;;4979666;28;20622;-79
2023/10/23 10:46:25;;;;;;;5.90;2.90;;;15.70;99.90;;;;;;4962930;28;20070;-78
2023/10/23 10:48:54;;;;;;;4.93;3.55;;;15.90;99.90;;;;;;4962260;28;20054;-78
2023/10/23 10:51:24;;;;;;;7.72;3.75;;;16.00;99.90;;;;;;4954730;28;20442;-78
2023/10/23 10:54:00;;;;;;;8.60;3.88;;;15.90;99.90;;;;;;4973186;28;20037;-79
2023/10/23 10:56:26;;;;;;;5.47;3.28;;;15.80;99.90;;;;;;4963406;28;20034;-78
2023/10/23 10:58:51;;;;;;;9.50;3.63;;;15.80;99.90;;;;;;4976083;28;20030;-78
2023/10/23 11:01:21;;;;;;;6.10;3.40;;;15.80;99.90;;;;;;4997228;28;20086;-78
2023/10/23 11:03:46;;;;;;;7.20;3.70;;;15.90;99.90;;;;;;4957743;28;20038;-78
2023/10/23 11:06:12;;;;;;;6.13;3.15;;;16.00;99.90;;;;;;4966200;28;20110;-78
2023/10/23 11:08:39;;;;;;;6.47;2.97;;;16.00;99.90;;;;;;4977182;28;20088;-78
2023/10/23 11:11:05;;;;;;;4.75;2.50;;;16.00;99.90;;;;;;4975766;28;20034;-77
2023/10/23 11:13:34;;;;;;;7.07;2.92;;;16.00;99.90;;;;;;4981489;28;20493;-78
2023/10/23 11:16:00;;;;;;;8.43;2.95;;;16.20;99.90;;;;;;4965672;28;20494;-78
2023/10/23 11:18:28;;;;;;;5.22;2.70;;;16.20;99.90;;;;;;4980314;28;20041;-78
2023/10/23 11:20:58;;;;;;;5.07;2.50;;;16.20;99.90;;;;;;4995979;28;20030;-79
2023/10/23 11:23:24;;;;;;;3.22;2.60;;;16.40;99.90;;;;;;4977098;28;20401;-78
2023/10/23 11:25:50;;;;;;;5.40;2.47;;;16.60;99.90;;;;;;4977905;28;20038;-77
2023/10/23 11:28:17;;;;;;;6.35;2.28;;;16.80;99.90;;;;;;4963200;28;20116;-78
2023/10/23 11:30:47;;;;;;;5.43;2.50;;;16.60;99.90;;;;;;4973039;28;20482;-78
2023/10/23 11:33:13;;;;;;;4.43;2.20;;;16.70;99.90;;;;;;4959990;28;20034;-79
2023/10/23 11:35:40;;;;;;;4.15;1.98;;;16.70;99.90;;;;;;4960338;28;20053;-78
2023/10/23 11:38:05;;;;;;;3.28;2.17;;;16.80;99.90;;;;;;4958759;28;20217;-78
2023/10/23 11:40:32;;;;;;;7.18;2.33;;;16.80;99.90;;;;;;4965370;28;20113;-78
2023/10/23 11:42:58;;;;;;;2.25;1.90;;;16.70;99.90;;;;;;4988252;28;20506;-78
2023/10/23 11:45:23;;;;;;;2.03;1.75;;;16.80;99.90;;;;;;4973195;28;20088;-78
2023/10/23 11:47:51;;;;;;;3.55;1.90;;;16.80;99.90;;;;;;4976399;28;20038;-78
2023/10/23 11:50:16;;;;;;;4.53;2.47;;;16.90;99.90;;;;;;4974350;28;20030;-78
2023/10/23 11:52:46;;;;;;;4.50;1.75;;;17.00;99.90;;;;;;4963973;28;20049;-78
2023/10/23 11:55:14;;;;;;;4.75;2.45;;;17.00;99.90;;;;;;4976424;28;20681;-78
2023/10/23 11:57:52;;;;;;;2.83;2.00;;;17.10;99.90;;;;;;4979109;28;20523;-77
2023/10/23 12:00:20;;;;;;;2.90;1.70;;;17.10;99.90;;;;;;4980486;28;20114;-77
2023/10/23 12:02:46;;;;;;;5.50;1.90;;;17.20;99.90;;;;;;4971713;28;20057;-77
2023/10/23 12:05:14;;;;;;;3.25;2.35;;;17.20;99.90;;;;;;4976129;28;20038;-77
2023/10/23 12:07:45;;;;;;;2.55;1.92;;;17.20;99.90;;;;;;4973633;28;20088;-77
2023/10/23 12:10:10;;;;;;;3.00;2.38;;;17.20;99.90;;;;;;4974785;28;20041;-78
2023/10/23 12:12:38;;;;;;;6.38;2.17;;;17.30;99.90;;;;;;4963514;28;20030;-77
2023/10/23 12:15:04;;;;;;;3.28;2.13;;;17.50;99.90;;;;;;4962076;28;20034;-78
2023/10/23 12:17:29;;;;;;;3.30;2.00;;;17.40;99.90;;;;;;4973022;28;20049;-78
2023/10/23 12:19:55;;;;;;;9.57;2.42;;;17.50;99.90;;;;;;4976290;28;20185;-78
2023/10/23 12:22:20;;;;;;;1.90;1.65;;;17.50;99.90;;;;;;4963454;28;20041;-78
2023/10/23 12:24:46;;;;;;;2.70;2.08;;;17.40;99.90;;;;;;4949366;28;20387;-79
2023/10/23 12:27:12;;;;;;;4.97;1.75;;;17.50;99.90;;;;;;4974654;28;20498;-78
2023/10/23 12:29:37;;;;;;;5.60;1.73;;;17.50;99.90;;;;;;4974141;28;20386;-79
2023/10/23 12:32:04;;;;;;;3.63;1.77;;;17.50;99.90;;;;;;4980722;28;20433;-78
2023/10/23 12:34:30;;;;;;;3.25;1.90;;;17.50;99.90;;;;;;4957942;28;20034;-79
2023/10/23 12:36:56;;;;;;;2.22;2.03;;;17.50;99.90;;;;;;4975432;28;20478;-78
2023/10/23 12:39:22;;;;;;;5.07;1.42;;;17.50;99.90;;;;;;4277053;28;9999899;-79
2023/10/23 12:41:47;;;;;;;3.10;1.73;;;17.60;99.90;;;;;;4971022;28;20041;-79
2023/10/23 12:44:13;;;;;;;2.05;1.67;;;17.60;99.90;;;;;;4969434;28;20023;-79